createdAt,value
2019-05-07T00:08:32.299Z,3.40
2019-05-07T00:18:35.389Z,3.80
2019-05-07T00:28:38.339Z,3.77
2019-05-07T00:38:44.160Z,4.17
2019-05-07T00:48:47.152Z,3.87
2019-05-07T00:58:52.517Z,3.37
2019-05-07T01:08:55.004Z,3.40
2019-05-07T01:18:57.976Z,3.93
2019-05-07T01:29:02.967Z,3.73
2019-05-07T01:39:06.570Z,3.70
2019-05-07T01:49:09.628Z,4.30
2019-05-07T01:59:12.610Z,3.77
2019-05-07T02:09:28.709Z,3.53
2019-05-07T02:19:32.950Z,4.40
2019-05-07T02:29:38.178Z,3.97
2019-05-07T02:39:49.621Z,4.80
2019-05-07T02:49:57.266Z,4.10
2019-05-07T03:00:04.052Z,4.00
2019-05-07T03:10:05.984Z,3.90
2019-05-07T03:20:14.016Z,4.50
2019-05-07T03:30:45.598Z,3.90
2019-05-07T03:40:47.893Z,4.30
2019-05-07T03:50:52.803Z,4.07
2019-05-07T04:00:55.731Z,4.13
2019-05-07T04:10:58.684Z,4.20
2019-05-07T04:21:03.707Z,4.93
2019-05-07T04:31:06.594Z,4.97
2019-05-07T04:41:09.649Z,4.83
2019-05-07T04:51:15.048Z,5.10
2019-05-07T05:01:19.946Z,5.47
2019-05-07T05:11:23.714Z,5.23
2019-05-07T05:21:59.077Z,5.13
2019-05-07T05:32:02.403Z,4.90
2019-05-07T05:42:14.670Z,5.23
2019-05-07T05:52:32.846Z,5.13
2019-05-07T06:02:54.747Z,4.90
2019-05-07T06:13:09.879Z,4.83
2019-05-07T06:23:27.985Z,6.40
2019-05-07T06:33:32.415Z,5.57
2019-05-07T06:43:43.357Z,4.75
2019-05-07T06:53:46.328Z,4.20
2019-05-07T07:04:17.991Z,4.78
2019-05-07T07:14:22.742Z,4.72
2019-05-07T07:24:25.865Z,5.17
2019-05-07T07:34:33.293Z,3.90
2019-05-07T07:44:36.325Z,4.00
2019-05-07T07:54:39.310Z,4.10
2019-05-07T08:04:42.656Z,3.65
2019-05-07T08:14:45.778Z,3.55
2019-05-07T08:24:48.769Z,3.80
2019-05-07T08:35:03.449Z,3.10
2019-05-07T08:45:25.050Z,3.37
2019-05-07T08:55:28.185Z,3.93
2019-05-07T09:05:32.370Z,3.45
2019-05-07T09:15:35.688Z,3.33
2019-05-07T09:25:47.382Z,3.47
2019-05-07T09:35:52.843Z,3.53
2019-05-07T09:45:56.085Z,2.90
2019-05-07T09:55:59.079Z,3.93
2019-05-07T10:06:03.413Z,4.17
2019-05-07T10:16:07.746Z,4.07
2019-05-07T10:26:12.178Z,4.10
2019-05-07T10:36:15.470Z,3.40
2019-05-07T10:46:37.691Z,4.22
2019-05-07T10:56:41.905Z,4.50
2019-05-07T11:06:45.173Z,4.10
2019-05-07T11:17:07.727Z,4.20
2019-05-07T11:27:11.886Z,3.47
2019-05-07T11:37:15.080Z,3.75
2019-05-07T11:47:24.653Z,3.75
2019-05-07T11:57:27.644Z,3.80
2019-05-07T12:07:32.616Z,4.10
2019-05-07T12:17:35.646Z,4.20
2019-05-07T12:27:39.166Z,3.50
2019-05-07T12:37:42.825Z,4.40
2019-05-07T12:47:47.134Z,3.60
2019-05-07T12:57:51.874Z,3.83
2019-05-07T13:07:55.044Z,3.60
2019-05-07T13:17:57.996Z,3.93
2019-05-07T13:28:02.677Z,3.43
2019-05-07T13:38:24.140Z,3.20
2019-05-07T13:48:27.295Z,3.63
2019-05-07T13:58:32.745Z,3.43
2019-05-07T14:08:38.010Z,3.40
2019-05-07T14:18:41.002Z,3.27
2019-05-07T14:28:43.971Z,3.70
2019-05-07T14:38:48.461Z,2.80
2019-05-07T14:48:52.080Z,2.97
2019-05-07T14:58:55.735Z,2.93
2019-05-07T15:08:58.831Z,3.43
2019-05-07T15:19:02.558Z,3.00
2019-05-07T15:29:13.368Z,3.30
2019-05-07T15:39:16.401Z,2.77
2019-05-07T15:49:21.545Z,3.40
2019-05-07T15:59:24.543Z,3.20
2019-05-07T16:09:42.642Z,3.30
2019-05-07T16:19:47.583Z,3.17
2019-05-07T16:29:52.507Z,2.70
2019-05-07T16:39:55.487Z,3.17
2019-05-07T16:49:59.260Z,3.17
2019-05-07T17:00:03.228Z,2.93
2019-05-07T17:10:06.660Z,2.87
2019-05-07T17:20:12.688Z,3.00
2019-05-07T17:30:16.041Z,2.50
2019-05-07T17:40:19.109Z,2.80
2019-05-07T17:50:26.953Z,3.13
2019-05-07T18:00:30.082Z,2.67
2019-05-07T18:10:35.206Z,1.90
2019-05-07T18:20:38.427Z,2.00
2019-05-07T18:30:41.560Z,1.97
2019-05-07T18:40:44.594Z,1.97
2019-05-07T18:50:47.587Z,1.60
2019-05-07T19:00:54.286Z,1.53
2019-05-07T19:10:57.681Z,1.80
2019-05-07T19:21:00.788Z,2.43
2019-05-07T19:31:05.111Z,1.60
2019-05-07T19:41:12.119Z,1.47
2019-05-07T19:51:14.988Z,1.63
2019-05-07T20:01:22.829Z,1.90
2019-05-07T20:11:37.406Z,1.87
2019-05-07T20:21:40.478Z,2.20
2019-05-07T20:31:43.508Z,3.40
2019-05-07T20:41:46.515Z,2.70
2019-05-07T20:51:49.539Z,2.70
2019-05-07T21:01:52.771Z,3.20
2019-05-07T21:11:55.832Z,3.30
2019-05-07T21:21:58.832Z,2.27
2019-05-07T21:32:03.261Z,2.47
2019-05-07T21:42:06.573Z,2.73
2019-05-07T21:52:09.514Z,2.50
2019-05-07T22:02:18.278Z,3.20
2019-05-07T22:12:22.580Z,3.00
2019-05-07T22:22:25.726Z,3.50
2019-05-07T22:32:36.734Z,3.10
2019-05-07T22:42:39.744Z,2.80
2019-05-07T22:52:42.805Z,2.73
2019-05-07T23:02:45.799Z,3.33
2019-05-07T23:12:48.771Z,3.10
2019-05-07T23:22:52.077Z,3.20
2019-05-07T23:32:55.179Z,3.80
2019-05-07T23:43:02.897Z,3.50
2019-05-07T23:53:05.797Z,3.17
